Pomona Park, Florida
Current Conditions -  °F | °C
As of 5:55 PM on Monday 24 Nov 2014 (Local Time) from K28J Reporting Station
Overcast Overcast  
Wind Chill: 79°   Ceiling: 3600
Heat Index: 82°   Visibility: 10mi
Dew Point: 72°   Wind: 5mph
Humidity: 78%   Direction: 220°SW
Pressure: 29.93"   Gusts: NA
Location:  29.5°N, 81.59°W
Report Text: K28J 242255Z AUTO 22004KT 10SM BKN036 BKN046 OVC050 26/22 A2993 RMK AO2 LTG DSNT NW
Loading
Personal Weather Stations






























Interactive Weather Map New forecast layout! Learn more

10-Day Weather Forecast

Advertisements
Track Severe Weather on mobile